Time;durP1;ratioP1;P1;durP2;ratioP2;P2;SDS_P1;SDS_P2;PMS_P1;PMS_P2;Temp;Humidity;BMP_temperature;BMP_pressure;BME280_temperature;BME280_humidity;BME280_pressure;Samples;Min_cycle;Max_cycle;Signal;HPM_P1;HPM_P2
2023/03/06 00:00:46;;;;;;;21.73;13.35;;;;;;;6.69;67.69;99451.44;5031009;28;20029;-29
2023/03/06 00:03:11;;;;;;;19.30;11.95;;;;;;;6.77;66.28;99445.91;5031111;28;20029;-30
2023/03/06 00:05:37;;;;;;;22.25;12.85;;;;;;;6.86;65.62;99454.44;5030575;28;20075;-34
2023/03/06 00:08:03;;;;;;;22.30;12.93;;;;;;;6.91;64.69;99441.41;5030951;28;20502;-30
2023/03/06 00:10:30;;;;;;;24.20;13.18;;;;;;;6.68;66.43;99431.25;5039128;28;20029;-31
2023/03/06 00:12:58;;;;;;;21.13;13.57;;;;;;;6.69;65.79;99439.00;5039156;28;20124;-30
2023/03/06 00:15:25;;;;;;;22.00;12.98;;;;;;;6.66;65.86;99433.31;5031090;28;20030;-33
2023/03/06 00:17:51;;;;;;;24.83;14.18;;;;;;;6.76;63.97;99433.69;5030608;28;20034;-30
2023/03/06 00:20:17;;;;;;;21.83;13.25;;;;;;;6.62;65.83;99444.34;5031315;28;20086;-30
2023/03/06 00:22:43;;;;;;;17.75;11.90;;;;;;;6.63;64.49;99451.25;5030881;28;20033;-31
2023/03/06 00:25:13;;;;;;;20.05;11.80;;;;;;;6.53;64.34;99434.97;5030516;28;20093;-30
2023/03/06 00:27:38;;;;;;;19.50;12.30;;;;;;;6.56;63.95;99436.38;5030832;28;20041;-32
2023/03/06 00:30:04;;;;;;;23.15;13.05;;;;;;;6.52;64.27;99454.56;5030473;28;20022;-31
2023/03/06 00:32:30;;;;;;;18.13;11.40;;;;;;;6.65;62.79;99456.34;5030786;28;20033;-30
2023/03/06 00:34:55;;;;;;;21.02;11.98;;;;;;;6.58;62.24;99466.16;5030109;28;20136;-32
2023/03/06 00:37:22;;;;;;;21.23;12.15;;;;;;;6.58;61.38;99455.56;5030458;28;20034;-30
2023/03/06 00:39:48;;;;;;;18.17;11.57;;;;;;;6.54;60.85;99472.88;5030766;28;20029;-30
2023/03/06 00:42:15;;;;;;;20.50;11.60;;;;;;;6.47;60.83;99450.88;5030549;28;20063;-31
2023/03/06 00:44:40;;;;;;;18.75;12.13;;;;;;;6.47;61.06;99451.69;5030851;28;20044;-30
2023/03/06 00:47:08;;;;;;;19.17;10.93;;;;;;;6.47;60.65;99454.34;5032649;28;20033;-31
2023/03/06 00:49:33;;;;;;;18.60;10.55;;;;;;;6.39;61.30;99471.25;5048580;28;20033;-30
2023/03/06 00:51:59;;;;;;;18.75;10.20;;;;;;;6.39;61.62;99470.44;5050278;28;20041;-30
2023/03/06 00:54:24;;;;;;;19.67;11.18;;;;;;;6.37;61.67;99478.59;5049655;28;20033;-31
2023/03/06 00:56:50;;;;;;;16.88;11.43;;;;;;;6.32;61.11;99474.97;5050139;28;20031;-29
2023/03/06 00:59:15;;;;;;;21.13;10.88;;;;;;;6.31;61.31;99479.41;5049552;28;20025;-29
2023/03/06 01:01:41;;;;;;;19.00;12.07;;;;;;;6.37;61.17;99478.59;5049656;28;20477;-32
2023/03/06 01:04:06;;;;;;;14.85;8.82;;;;;;;6.12;59.38;99459.88;5049271;28;20037;-33
2023/03/06 01:06:32;;;;;;;19.08;11.05;;;;;;;6.19;60.18;99483.72;5049747;28;20040;-33
2023/03/06 01:08:57;;;;;;;17.25;9.32;;;;;;;6.17;59.27;99477.81;5049420;28;20048;-30
2023/03/06 01:11:23;;;;;;;17.58;10.93;;;;;;;5.78;60.51;99460.88;5049914;28;20556;-30
2023/03/06 01:13:48;;;;;;;17.98;11.07;;;;;;;6.10;60.27;99471.72;5049467;28;20054;-31
2023/03/06 01:16:17;;;;;;;17.50;11.18;;;;;;;6.17;60.32;99477.81;5049400;28;20036;-31
2023/03/06 01:18:43;;;;;;;16.73;10.57;;;;;;;6.19;59.28;99462.53;5049310;28;20051;-30
2023/03/06 01:21:09;;;;;;;18.95;9.38;;;;;;;6.13;57.48;99468.63;5049458;28;20033;-30
2023/03/06 01:23:34;;;;;;;18.77;10.70;;;;;;;5.76;59.26;99465.53;5048926;28;20029;-30
2023/03/06 01:26:00;;;;;;;15.75;9.45;;;;;;;5.90;58.61;99456.59;5049399;28;20037;-29
2023/03/06 01:28:26;;;;;;;18.83;10.43;;;;;;;6.03;58.23;99499.00;5049661;28;20025;-30
2023/03/06 01:30:51;;;;;;;23.15;10.98;;;;;;;5.89;59.33;99492.03;5049300;28;20040;-29
2023/03/06 01:33:17;;;;;;;19.25;10.35;;;;;;;5.79;59.30;99467.81;5049099;28;20025;-29
2023/03/06 01:35:42;;;;;;;18.20;10.70;;;;;;;5.90;59.30;99485.72;5049435;28;20024;-31
2023/03/06 01:38:08;;;;;;;20.00;11.20;;;;;;;5.61;58.83;99458.59;5049158;28;20402;-31
2023/03/06 01:40:35;;;;;;;20.70;11.98;;;;;;;5.82;59.55;99484.09;5047577;28;20501;-31
2023/03/06 01:43:36;;;;;;;17.45;10.50;;;;;;;5.82;60.10;99493.84;5049211;28;20049;-31
2023/03/06 01:46:32;;;;;;;19.00;11.52;;;;;;;5.81;60.54;99484.28;5048964;28;20027;-30
2023/03/06 01:49:33;;;;;;;16.02;10.13;;;;;;;5.71;60.87;99491.81;5034710;28;20029;-30
2023/03/06 01:52:02;;;;;;;22.23;10.77;;;;;;;5.85;59.83;99490.81;5028427;28;20052;-30
2023/03/06 01:54:33;;;;;;;20.67;11.02;;;;;;;5.80;59.62;99488.78;5028812;28;20033;-30
2023/03/06 01:57:05;;;;;;;22.08;10.38;;;;;;;5.49;60.61;99476.09;5028987;28;20030;-30
2023/03/06 01:59:34;;;;;;;16.33;10.27;;;;;;;5.54;60.63;99489.53;5027577;28;20032;-31
2023/03/06 02:02:01;;;;;;;16.80;10.68;;;;;;;5.50;61.07;99506.00;5029378;28;20123;-29
2023/03/06 02:04:27;;;;;;;16.80;10.32;;;;;;;5.43;61.18;99504.16;5028940;28;20151;-30
2023/03/06 02:07:00;;;;;;;18.58;11.05;;;;;;;5.40;61.75;99498.44;5029349;28;20108;-30
2023/03/06 02:09:28;;;;;;;17.98;11.05;;;;;;;5.32;61.40;99485.41;5028597;28;20030;-32
2023/03/06 02:11:54;;;;;;;18.75;11.20;;;;;;;5.38;61.24;99495.19;5029201;28;20445;-31
2023/03/06 02:14:20;;;;;;;19.40;10.13;;;;;;;5.31;61.27;99505.75;5028928;28;20493;-31
2023/03/06 02:16:46;;;;;;;20.10;11.80;;;;;;;5.31;60.81;99507.56;5028525;28;20022;-30
2023/03/06 02:19:18;;;;;;;16.80;10.13;;;;;;;5.33;60.67;99493.16;5028500;28;20084;-30
2023/03/06 02:21:44;;;;;;;18.10;11.05;;;;;;;5.54;60.32;99515.19;5028813;28;20029;-30
2023/03/06 02:24:26;;;;;;;16.83;10.70;;;;;;;5.51;60.56;99516.38;5028665;28;20406;-32
2023/03/06 02:27:00;;;;;;;20.48;11.88;;;;;;;5.23;61.98;99487.38;5028524;28;20101;-30
2023/03/06 02:29:28;;;;;;;17.70;11.32;;;;;;;5.58;61.26;99517.22;5028131;28;20033;-31
2023/03/06 02:31:53;;;;;;;20.23;11.75;;;;;;;5.65;60.01;99501.34;5029221;28;20030;-29
2023/03/06 02:34:19;;;;;;;18.42;9.35;;;;;;;5.76;59.06;99518.47;5028944;28;20044;-29
2023/03/06 02:36:48;;;;;;;19.00;10.45;;;;;;;5.71;58.55;99510.31;5028318;28;20108;-30
2023/03/06 02:39:16;;;;;;;16.52;10.60;;;;;;;5.84;58.66;99519.09;5028780;28;20040;-29
2023/03/06 02:41:41;;;;;;;16.38;8.07;;;;;;;5.84;58.39;99520.91;5028738;28;20109;-30
2023/03/06 02:44:07;;;;;;;18.55;10.23;;;;;;;5.77;58.94;99522.75;5028430;28;20144;-30
2023/03/06 02:46:32;;;;;;;16.25;9.10;;;;;;;5.96;57.70;99529.91;5028945;28;20410;-29
2023/03/06 02:48:58;;;;;;;16.95;8.38;;;;;;;6.01;57.15;99527.50;5042071;28;20508;-26
2023/03/06 02:51:23;;;;;;;17.02;8.77;;;;;;;5.92;55.78;99504.84;5048937;28;20120;-30
2023/03/06 02:53:49;;;;;;;15.23;8.07;;;;;;;6.07;56.80;99525.03;5052133;28;20496;-30
2023/03/06 02:56:14;;;;;;;15.98;8.63;;;;;;;5.82;56.53;99512.38;5052454;28;20029;-29
2023/03/06 02:58:39;;;;;;;11.82;7.85;;;;;;;5.75;56.29;99514.19;5052125;28;20040;-29
2023/03/06 03:01:06;;;;;;;16.83;9.90;;;;;;;5.89;56.55;99528.28;5052712;28;20028;-29
2023/03/06 03:03:32;;;;;;;17.67;10.15;;;;;;;5.81;56.61;99534.56;5051715;28;20033;-27
2023/03/06 03:05:58;;;;;;;18.10;9.75;;;;;;;5.85;56.80;99538.44;5052412;28;20033;-31
2023/03/06 03:08:26;;;;;;;17.67;9.95;;;;;;;5.70;57.96;99541.25;5052127;28;20048;-29
2023/03/06 03:10:52;;;;;;;16.65;9.27;;;;;;;5.51;58.41;99539.38;5052407;28;20025;-30
2023/03/06 03:13:18;;;;;;;16.52;10.20;;;;;;;5.50;58.60;99520.03;5052217;28;20037;-30
2023/03/06 03:15:44;;;;;;;16.05;9.82;;;;;;;5.60;58.38;99524.97;5052353;28;20047;-29
2023/03/06 03:18:10;;;;;;;17.60;9.00;;;;;;;5.54;58.34;99537.16;5052123;28;20669;-31
2023/03/06 03:20:36;;;;;;;15.32;9.10;;;;;;;5.40;58.84;99538.13;5051757;28;20035;-30
2023/03/06 03:23:01;;;;;;;18.38;9.65;;;;;;;5.21;59.28;99543.13;5051967;28;20036;-33
2023/03/06 03:25:27;;;;;;;17.10;9.32;;;;;;;5.07;59.20;99519.44;5051246;28;20455;-29
2023/03/06 03:27:52;;;;;;;19.73;10.27;;;;;;;4.96;60.21;99513.72;5051593;28;20036;-31
2023/03/06 03:30:18;;;;;;;20.20;11.52;;;;;;;5.25;60.04;99535.63;5052096;28;20025;-33
2023/03/06 03:32:43;;;;;;;16.65;9.88;;;;;;;4.96;60.97;99528.75;5052001;28;20040;-31
2023/03/06 03:35:10;;;;;;;18.13;10.98;;;;;;;4.99;60.56;99533.66;5051860;28;20037;-32
2023/03/06 03:37:36;;;;;;;20.73;9.50;;;;;;;4.90;60.39;99532.19;5050372;28;20416;-32
2023/03/06 03:40:05;;;;;;;17.48;9.15;;;;;;;4.88;60.00;99542.13;5051512;28;20492;-34
2023/03/06 03:42:30;;;;;;;19.42;10.77;;;;;;;4.80;61.06;99528.06;5051522;28;20061;-33
2023/03/06 03:44:56;;;;;;;17.38;10.40;;;;;;;4.91;60.15;99544.41;5050325;28;20029;-35
2023/03/06 03:47:21;;;;;;;17.30;9.60;;;;;;;4.83;61.00;99545.34;5051718;28;20029;-30
2023/03/06 03:49:46;;;;;;;18.33;10.30;;;;;;;4.73;61.62;99534.31;5036302;28;20041;-30
2023/03/06 03:52:12;;;;;;;17.60;10.32;;;;;;;4.74;62.17;99535.94;5031422;28;20036;-31
2023/03/06 03:54:40;;;;;;;17.52;9.85;;;;;;;4.58;62.47;99523.88;5031043;28;20030;-29
2023/03/06 03:57:05;;;;;;;21.30;10.52;;;;;;;4.52;62.15;99516.72;5030126;28;20466;-31
2023/03/06 03:59:33;;;;;;;19.27;11.23;;;;;;;4.64;63.02;99562.72;5031113;28;20030;-30
2023/03/06 04:01:58;;;;;;;20.90;10.47;;;;;;;4.48;63.03;99537.41;5031054;28;20030;-31
2023/03/06 04:04:26;;;;;;;18.20;10.68;;;;;;;4.68;62.47;99557.84;5031000;28;20033;-31
2023/03/06 04:06:51;;;;;;;17.83;10.05;;;;;;;4.58;61.29;99539.72;5031385;28;20029;-30
2023/03/06 04:09:20;;;;;;;20.13;11.70;;;;;;;4.86;61.08;99570.56;5031313;28;20052;-30
2023/03/06 04:11:45;;;;;;;18.85;10.32;;;;;;;4.86;61.48;99567.94;5031114;28;20024;-30
2023/03/06 04:14:11;;;;;;;19.15;10.57;;;;;;;4.96;62.22;99571.03;5030840;28;20037;-31
2023/03/06 04:16:36;;;;;;;20.95;11.75;;;;;;;4.79;64.05;99584.53;5031029;28;20119;-31
2023/03/06 04:19:01;;;;;;;17.92;10.52;;;;;;;4.78;61.63;99577.66;5030735;28;20163;-29
2023/03/06 04:21:27;;;;;;;25.33;12.38;;;;;;;4.59;62.45;99583.59;5031052;28;20030;-30
2023/03/06 04:23:52;;;;;;;21.55;11.88;;;;;;;4.68;63.37;99584.25;5030665;28;20108;-29
2023/03/06 04:26:17;;;;;;;18.38;10.73;;;;;;;4.58;63.79;99588.06;5030337;28;20719;-31
2023/03/06 04:28:43;;;;;;;19.02;10.70;;;;;;;4.45;64.59;99574.75;5030593;28;20033;-29
2023/03/06 04:31:13;;;;;;;22.85;10.82;;;;;;;4.20;66.04;99583.06;5030536;28;20152;-32
2023/03/06 04:33:38;;;;;;;22.85;11.35;;;;;;;4.14;65.42;99598.84;5030723;28;20044;-30
2023/03/06 04:36:04;;;;;;;18.92;10.55;;;;;;;4.22;66.07;99601.34;5030671;28;20025;-31
2023/03/06 04:38:30;;;;;;;20.98;11.82;;;;;;;4.29;65.96;99606.69;5030312;28;20033;-32
2023/03/06 04:40:55;;;;;;;19.38;10.82;;;;;;;4.41;66.71;99613.94;5030123;28;20132;-31
2023/03/06 04:43:21;;;;;;;19.63;11.68;;;;;;;4.46;64.72;99623.09;5045743;28;20056;-30
2023/03/06 04:45:48;;;;;;;22.42;11.48;;;;;;;4.36;65.79;99624.22;5050198;28;20500;-31
2023/03/06 04:48:16;;;;;;;20.85;12.13;;;;;;;4.34;67.60;99604.31;5050194;28;20033;-31
2023/03/06 04:50:42;;;;;;;22.70;15.40;;;;;;;4.23;66.92;99624.94;5049743;28;20126;-31
2023/03/06 04:53:08;;;;;;;20.02;11.40;;;;;;;4.19;66.66;99623.66;5049953;28;20071;-30
2023/03/06 04:55:33;;;;;;;24.25;11.93;;;;;;;4.19;67.23;99607.03;5050053;28;20025;-31
2023/03/06 04:57:59;;;;;;;21.58;12.35;;;;;;;4.28;67.37;99616.44;5050285;28;20107;-30
2023/03/06 05:00:29;;;;;;;19.55;11.52;;;;;;;4.19;67.22;99618.38;5050170;28;20021;-30
2023/03/06 05:02:55;;;;;;;20.10;11.70;;;;;;;4.16;67.75;99633.78;5050383;28;20033;-30
2023/03/06 05:05:20;;;;;;;20.52;12.35;;;;;;;4.23;67.68;99648.69;5049527;28;20029;-31
2023/03/06 05:07:46;;;;;;;29.42;16.70;;;;;;;4.06;68.65;99633.28;5049701;28;20025;-30
2023/03/06 05:10:15;;;;;;;24.73;14.25;;;;;;;4.34;68.14;99662.38;5049489;28;20021;-30
2023/03/06 05:12:40;;;;;;;23.77;12.50;;;;;;;4.42;66.52;99671.00;5050359;28;20041;-29
2023/03/06 05:15:10;;;;;;;35.15;20.55;;;;;;;4.34;67.08;99671.13;5048822;28;20036;-30
2023/03/06 05:17:36;;;;;;;32.55;20.02;;;;;;;4.32;68.34;99675.78;5048302;28;20033;-30
2023/03/06 05:20:04;;;;;;;23.98;14.10;;;;;;;4.29;68.05;99678.81;5049658;28;20025;-31
2023/03/06 05:22:31;;;;;;;21.30;13.60;;;;;;;4.25;69.16;99674.91;5049418;28;20028;-30
2023/03/06 05:24:56;;;;;;;22.05;12.30;;;;;;;4.37;68.91;99677.84;5049792;28;20032;-32
2023/03/06 05:27:21;;;;;;;25.20;13.80;;;;;;;4.33;68.52;99672.13;5049667;28;20024;-34
2023/03/06 05:29:47;;;;;;;24.92;14.27;;;;;;;4.50;67.54;99663.97;5049749;28;20033;-33
2023/03/06 05:32:12;;;;;;;24.38;15.25;;;;;;;4.85;67.30;99687.84;5049956;28;20033;-32
2023/03/06 05:34:39;;;;;;;33.72;16.60;;;;;;;4.69;67.34;99673.88;5049646;28;20029;-32
2023/03/06 05:37:06;;;;;;;32.33;18.15;;;;;;;4.82;68.14;99676.66;5049447;28;20048;-31
2023/03/06 05:39:34;;;;;;;44.55;23.55;;;;;;;4.63;69.15;99693.13;5049141;28;20481;-33
2023/03/06 05:41:59;;;;;;;39.43;21.97;;;;;;;4.40;70.80;99701.25;5049354;28;20488;-33
2023/03/06 05:44:30;;;;;;;42.88;20.92;;;;;;;4.54;69.46;99689.00;5049341;28;20033;-35
2023/03/06 05:46:56;;;;;;;42.45;21.95;;;;;;;4.79;69.87;99694.69;5049101;28;20455;-38
2023/03/06 05:49:21;;;;;;;37.55;21.55;;;;;;;4.85;68.11;99685.19;5049006;28;20037;-33
2023/03/06 05:51:49;;;;;;;37.63;20.67;;;;;;;5.01;67.29;99698.13;5045085;28;20028;-32
2023/03/06 05:54:15;;;;;;;37.40;20.92;;;;;;;5.19;66.68;99709.03;5049382;28;20046;-34
2023/03/06 05:56:40;;;;;;;32.80;22.75;;;;;;;5.32;63.61;99699.56;5048879;28;20112;-31
2023/03/06 05:59:06;;;;;;;25.00;14.75;;;;;;;5.37;63.35;99705.09;5049624;28;20183;-33
2023/03/06 06:01:31;;;;;;;23.85;12.77;;;;;;;5.53;63.75;99717.19;5048549;28;20025;-34
2023/03/06 06:03:57;;;;;;;23.02;13.02;;;;;;;5.51;63.03;99725.31;5048526;28;20496;-33
2023/03/06 06:06:22;;;;;;;21.35;12.18;;;;;;;5.64;62.29;99706.88;5048950;28;20391;-32
2023/03/06 06:08:47;;;;;;;32.83;13.77;;;;;;;5.96;61.93;99731.06;5048918;28;20020;-31
2023/03/06 06:11:13;;;;;;;33.28;17.48;;;;;;;5.79;62.04;99708.59;5048984;28;20394;-30
2023/03/06 06:13:39;;;;;;;28.83;13.02;;;;;;;5.60;67.10;99716.22;5048601;28;20078;-30
2023/03/06 06:16:10;;;;;;;23.85;13.43;;;;;;;5.94;67.45;99732.25;5048495;28;20033;-30
2023/03/06 06:18:38;;;;;;;22.92;14.57;;;;;;;6.20;66.87;99736.88;5039889;28;20394;-31
2023/03/06 06:21:06;;;;;;;22.25;14.25;;;;;;;6.11;65.58;99714.22;5029248;28;20026;-31
2023/03/06 06:23:31;;;;;;;22.85;14.57;;;;;;;6.35;63.50;99734.88;5028993;28;20041;-34
2023/03/06 06:26:05;;;;;;;21.50;12.10;;;;;;;6.62;60.10;99745.56;5028800;28;20043;-31
2023/03/06 06:28:31;;;;;;;19.02;11.43;;;;;;;6.83;56.39;99763.94;5029253;28;20040;-32
2023/03/06 06:30:56;;;;;;;21.33;12.65;;;;;;;6.76;57.54;99760.47;5028734;28;20067;-31
2023/03/06 06:33:22;;;;;;;20.85;11.00;;;;;;;6.97;56.59;99758.69;5028567;28;20033;-31
2023/03/06 06:35:48;;;;;;;19.98;11.05;;;;;;;7.10;56.98;99748.06;5028879;28;20033;-32
2023/03/06 06:38:14;;;;;;;23.73;12.60;;;;;;;7.18;57.92;99765.63;5029101;28;20056;-31
2023/03/06 06:40:39;;;;;;;19.52;11.55;;;;;;;7.33;56.46;99757.44;5027455;28;20030;-33
2023/03/06 06:43:05;;;;;;;20.48;11.65;;;;;;;7.43;56.41;99768.44;5028640;28;20064;-31
2023/03/06 06:45:30;;;;;;;17.75;11.80;;;;;;;7.57;54.73;99770.06;5027259;28;20092;-31
2023/03/06 06:47:58;;;;;;;18.75;11.32;;;;;;;7.72;53.51;99774.31;5028366;28;20037;-31
2023/03/06 06:50:24;;;;;;;;;;;;;;;8.00;52.08;99777.53;5029427;28;20029;-31
2023/03/06 06:52:49;;;;;;;19.63;12.15;;;;;;;7.85;51.57;99766.34;5047712;28;19917;-34
2023/03/06 06:55:15;;;;;;;18.77;11.52;;;;;;;7.78;51.38;99766.34;5047842;28;20044;-30
2023/03/06 06:57:41;;;;;;;19.40;11.25;;;;;;;7.89;53.52;99788.81;5048104;28;20029;-31
2023/03/06 07:00:11;;;;;;;17.42;11.23;;;;;;;7.64;51.60;99770.88;5048356;28;20120;-33
2023/03/06 07:02:37;;;;;;;21.00;12.00;;;;;;;7.74;55.08;99772.28;5045817;28;20043;-31
2023/03/06 07:05:02;;;;;;;22.10;12.07;;;;;;;8.01;51.73;99779.19;5037601;28;20029;-32
2023/03/06 07:07:28;;;;;;;29.73;16.80;;;;;;;8.13;51.83;99767.88;5036360;28;20096;-31
2023/03/06 07:09:54;;;;;;;21.60;12.25;;;;;;;8.17;52.51;99769.94;5037655;28;20025;-31
2023/03/06 07:12:22;;;;;;;19.05;12.10;;;;;;;8.33;51.98;99781.09;5033331;28;20030;-31
2023/03/06 07:14:47;;;;;;;18.48;12.00;;;;;;;8.39;52.52;99765.13;5037566;28;20029;-32
2023/03/06 07:17:13;;;;;;;20.45;12.48;;;;;;;8.60;53.52;99768.50;5047958;28;20563;-32
2023/03/06 07:19:38;;;;;;;21.50;12.77;;;;;;;8.67;50.73;99766.66;5047928;28;20059;-32
2023/03/06 07:22:07;;;;;;;21.33;17.52;;;;;;;8.60;51.28;99760.53;5039197;28;20033;-30
2023/03/06 07:24:32;;;;;;;26.73;19.02;;;;;;;8.81;52.91;99776.19;5038479;28;20025;-29
2023/03/06 07:26:57;;;;;;;18.70;12.38;;;;;;;9.04;52.22;99758.84;5035260;28;20032;-31
2023/03/06 07:29:23;;;;;;;20.25;11.65;;;;;;;8.97;51.24;99766.88;5036663;28;20533;-31
2023/03/06 07:31:51;;;;;;;22.23;12.60;;;;;;;9.12;51.20;99787.84;5038176;28;20025;-31
2023/03/06 07:34:16;;;;;;;20.10;11.93;;;;;;;9.00;51.01;99779.72;5036465;28;20069;-31
2023/03/06 07:36:41;;;;;;;21.15;12.23;;;;;;;9.37;51.15;99785.16;5037248;28;20475;-31
2023/03/06 07:39:08;;;;;;;18.48;11.25;;;;;;;9.65;49.61;99792.69;5041524;28;20035;-30
2023/03/06 07:41:35;;;;;;;21.65;12.38;;;;;;;9.82;50.41;99792.13;5039406;28;20045;-31
2023/03/06 07:44:01;;;;;;;18.88;12.10;;;;;;;10.01;50.48;99799.13;5040416;28;20056;-32
2023/03/06 07:46:26;;;;;;;21.58;13.13;;;;;;;9.80;50.04;99786.22;5041468;28;20038;-30
2023/03/06 07:48:52;;;;;;;19.17;11.77;;;;;;;9.89;47.63;99795.56;5039689;28;20026;-31
2023/03/06 07:51:20;;;;;;;17.42;11.73;;;;;;;10.08;50.22;99811.56;5040989;28;20024;-32
2023/03/06 07:53:46;;;;;;;19.23;12.27;;;;;;;10.13;50.13;99787.72;5040094;28;20025;-32
2023/03/06 07:56:12;;;;;;;19.05;12.18;;;;;;;10.19;48.55;99800.13;5039283;28;20037;-33
2023/03/06 07:58:40;;;;;;;18.95;11.18;;;;;;;10.28;48.48;99809.47;5041223;28;20040;-34
2023/03/06 08:01:10;;;;;;;18.08;10.35;;;;;;;10.21;48.11;99804.19;5041147;28;20092;-28
2023/03/06 08:03:35;;;;;;;18.17;11.38;;;;;;;10.12;47.13;99784.22;5039140;28;20052;-31
2023/03/06 08:06:11;;;;;;;20.35;12.10;;;;;;;10.48;48.47;99795.09;5040678;28;20504;-32
2023/03/06 08:08:38;;;;;;;17.70;10.55;;;;;;;10.38;47.13;99790.28;5039403;28;20103;-31
2023/03/06 08:11:04;;;;;;;16.73;10.18;;;;;;;10.53;45.57;99792.59;5039842;28;20108;-31
2023/03/06 08:13:30;;;;;;;17.80;10.65;;;;;;;10.48;45.35;99790.59;5040651;28;20428;-32
2023/03/06 08:15:56;;;;;;;21.52;11.05;;;;;;;10.52;46.42;99802.44;5039278;28;20029;-32
2023/03/06 08:18:21;;;;;;;17.77;10.18;;;;;;;10.62;45.77;99800.06;5040185;28;20037;-29
2023/03/06 08:20:47;;;;;;;19.35;11.18;;;;;;;10.55;44.73;99795.84;5040606;28;20022;-31
2023/03/06 08:23:12;;;;;;;16.33;10.05;;;;;;;10.25;44.54;99781.41;5038521;28;20041;-32
2023/03/06 08:25:38;;;;;;;17.17;9.75;;;;;;;10.76;44.40;99798.00;5040339;28;20017;-32
2023/03/06 08:28:03;;;;;;;17.30;10.32;;;;;;;10.89;45.21;99804.19;5040064;28;20040;-32
2023/03/06 08:30:29;;;;;;;18.10;10.88;;;;;;;11.29;46.99;99798.28;5039241;28;20039;-31
2023/03/06 08:32:54;;;;;;;17.25;10.07;;;;;;;11.31;44.30;99777.50;5041009;28;20033;-32
2023/03/06 08:35:20;;;;;;;16.27;9.73;;;;;;;10.95;43.73;99795.28;5039280;28;20017;-32
2023/03/06 08:37:45;;;;;;;18.13;10.23;;;;;;;11.31;44.76;99809.53;5039417;28;20040;-32
2023/03/06 08:40:12;;;;;;;16.90;10.00;;;;;;;11.57;44.35;99803.75;5040628;28;20017;-30
2023/03/06 08:42:37;;;;;;;15.52;9.60;;;;;;;11.32;42.42;99803.13;5037451;28;20080;-32
2023/03/06 08:45:03;;;;;;;18.10;11.00;;;;;;;11.55;46.29;99795.16;5048897;28;20052;-31
2023/03/06 08:47:28;;;;;;;17.77;10.20;;;;;;;12.04;43.47;99798.41;5050551;28;20037;-33
2023/03/06 08:49:54;;;;;;;16.75;9.50;;;;;;;11.98;43.08;99783.31;5049399;28;20493;-32
2023/03/06 08:52:20;;;;;;;19.10;10.25;;;;;;;11.80;43.06;99788.75;5050220;28;20485;-31
2023/03/06 08:54:46;;;;;;;18.48;10.18;;;;;;;11.85;41.63;99795.03;5029875;28;20036;-32
2023/03/06 08:57:11;;;;;;;16.15;9.80;;;;;;;11.82;43.13;99789.34;5030407;28;20498;-31
2023/03/06 08:59:36;;;;;;;15.50;9.43;;;;;;;11.99;42.63;99792.97;5029998;28;20025;-31
2023/03/06 09:02:04;;;;;;;13.18;8.07;;;;;;;12.05;42.48;99786.69;5029699;28;20059;-30
2023/03/06 09:04:30;;;;;;;13.60;8.43;;;;;;;12.11;41.22;99770.75;5029910;28;20092;-32
2023/03/06 09:06:56;;;;;;;18.05;9.88;;;;;;;12.45;43.20;99787.75;5029989;28;20029;-33
2023/03/06 09:09:21;;;;;;;15.45;9.65;;;;;;;12.29;42.23;99777.78;5029586;28;20048;-32
2023/03/06 09:11:46;;;;;;;14.85;9.15;;;;;;;12.50;40.14;99784.34;5029509;28;20033;-32
2023/03/06 09:14:13;;;;;;;16.70;10.23;;;;;;;12.73;40.99;99767.38;5030222;28;20100;-31
2023/03/06 09:16:40;;;;;;;15.05;9.60;;;;;;;12.84;39.90;99753.94;5030055;28;20026;-32
2023/03/06 09:19:06;;;;;;;16.35;9.80;;;;;;;12.80;40.32;99760.81;5029458;28;20112;-31
2023/03/06 09:21:31;;;;;;;15.45;9.20;;;;;;;12.42;40.05;99770.31;5028765;28;20120;-31
2023/03/06 09:24:00;;;;;;;21.23;11.15;;;;;;;12.88;39.86;99783.72;5029529;28;20417;-32
2023/03/06 09:26:28;;;;;;;15.55;9.13;;;;;;;12.96;40.14;99769.13;5029425;28;20025;-31
2023/03/06 09:28:53;;;;;;;1089.45;640.08;;;;;;;13.13;41.98;99772.63;5029458;28;20044;-30
2023/03/06 09:31:19;;;;;;;134.95;71.85;;;;;;;13.56;42.27;99771.16;5029456;28;20486;-31
2023/03/06 09:33:46;;;;;;;15.43;9.32;;;;;;;13.24;39.51;99768.25;5029608;28;20524;-33
2023/03/06 09:36:20;;;;;;;18.02;10.38;;;;;;;13.79;40.98;99763.97;5029432;28;20080;-33
2023/03/06 09:38:48;;;;;;;16.42;9.68;;;;;;;14.02;41.97;99774.50;5029217;28;20032;-33
2023/03/06 09:41:25;;;;;;;15.63;8.15;;;;;;;13.73;37.95;99771.16;5029282;28;20057;-31
2023/03/06 09:43:55;;;;;;;14.13;8.40;;;;;;;13.74;38.48;99767.41;5027890;28;20053;-31
2023/03/06 09:46:35;;;;;;;18.17;9.90;;;;;;;13.61;38.96;99768.56;5029154;28;20075;-30
2023/03/06 09:49:12;;;;;;;16.13;9.30;;;;;;;13.23;39.38;99772.78;5029153;28;20029;-32
2023/03/06 09:51:44;;;;;;;20.45;10.32;;;;;;;13.73;40.08;99764.97;5029432;28;20508;-33
2023/03/06 09:54:12;;;;;;;13.05;7.93;;;;;;;14.04;36.91;99758.97;5029424;28;20437;-31
2023/03/06 09:56:48;;;;;;;14.75;9.18;;;;;;;14.40;38.12;99754.00;5048739;28;20029;-29
2023/03/06 09:59:21;;;;;;;15.38;8.90;;;;;;;14.49;36.56;99770.50;5049093;28;20110;-31
2023/03/06 10:01:55;;;;;;;14.45;9.23;;;;;;;14.23;38.33;99756.78;5048488;28;20037;-31
2023/03/06 10:04:40;;;;;;;17.83;10.80;;;;;;;14.65;39.05;99760.75;5048635;28;20064;-32
2023/03/06 10:07:19;;;;;;;13.10;8.10;;;;;;;14.84;36.75;99734.34;5049264;28;20024;-31
2023/03/06 10:09:57;;;;;;;15.88;8.73;;;;;;;15.00;35.26;99757.59;5048674;28;20097;-30
2023/03/06 10:12:25;;;;;;;;;;;;;;;15.09;35.45;99760.59;5049509;28;20485;-30
2023/03/06 10:15:18;;;;;;;13.73;8.55;;;;;;;14.92;35.97;99759.94;5048946;28;20017;-32
2023/03/06 10:17:44;;;;;;;17.63;9.40;;;;;;;14.65;36.71;99750.03;5048677;28;20035;-31
2023/03/06 10:20:52;;;;;;;15.05;8.75;;;;;;;15.07;35.72;99757.38;5048606;28;20025;-31
2023/03/06 10:23:45;;;;;;;14.38;7.90;;;;;;;15.13;35.29;99755.53;5047792;28;20069;-31
2023/03/06 10:26:22;;;;;;;13.70;8.70;;;;;;;15.73;33.97;99758.94;5048288;28;20032;-33
2023/03/06 10:29:00;;;;;;;18.52;10.98;;;;;;;15.55;36.21;99747.53;5048316;28;20036;-31
2023/03/06 10:31:27;;;;;;;13.55;8.32;;;;;;;15.90;34.25;99731.88;5048042;28;20028;-31
2023/03/06 10:33:56;;;;;;;14.45;8.45;;;;;;;16.38;33.44;99743.34;5048414;28;20466;-33
2023/03/06 10:36:26;;;;;;;12.27;7.72;;;;;;;16.72;34.40;99730.22;5048365;28;20041;-31
2023/03/06 10:38:52;;;;;;;64.30;33.75;;;;;;;16.48;33.00;99722.63;5048303;28;20037;-30
2023/03/06 10:41:28;;;;;;;124.38;58.25;;;;;;;16.57;33.86;99725.63;5047971;28;20021;-34
2023/03/06 10:44:00;;;;;;;118.85;60.92;;;;;;;16.65;34.20;99724.28;5048007;28;20063;-32
2023/03/06 10:46:28;;;;;;;25.08;13.73;;;;;;;16.55;34.99;99716.19;5046748;28;20471;-32
2023/03/06 10:49:03;;;;;;;16.27;9.15;;;;;;;16.51;34.84;99709.72;5048355;28;20029;-33
2023/03/06 10:51:29;;;;;;;13.98;8.05;;;;;;;17.07;34.78;99701.69;5047976;28;20616;-31
2023/03/06 10:53:59;;;;;;;14.02;8.52;;;;;;;16.93;32.65;99716.78;5048137;28;20511;-31
2023/03/06 10:56:26;;;;;;;15.27;8.45;;;;;;;16.57;34.70;99687.94;5048089;28;20505;-33
2023/03/06 10:59:10;;;;;;;13.60;8.65;;;;;;;16.78;33.04;99710.28;5029450;28;20041;-32
2023/03/06 11:01:36;;;;;;;13.35;7.95;;;;;;;17.39;31.34;99693.31;5027813;28;20516;-32
2023/03/06 11:04:20;;;;;;;12.93;7.95;;;;;;;17.97;30.06;99708.25;5028074;28;20064;-31
2023/03/06 11:06:45;;;;;;;12.73;8.00;;;;;;;18.07;30.46;99692.81;5028152;28;20022;-31
2023/03/06 11:09:24;;;;;;;13.65;8.35;;;;;;;18.45;29.09;99692.34;5028317;28;20505;-31
2023/03/06 11:11:50;;;;;;;12.95;7.20;;;;;;;18.12;28.37;99667.69;5028643;28;20044;-31
2023/03/06 11:14:23;;;;;;;14.77;7.60;;;;;;;18.37;31.69;99680.25;5032391;28;20476;-32
2023/03/06 11:16:52;;;;;;;12.15;7.57;;;;;;;18.44;30.28;99677.22;5032148;28;20115;-32
2023/03/06 11:19:28;;;;;;;11.30;7.10;;;;;;;18.23;31.95;99680.06;5034678;28;20477;-32
2023/03/06 11:22:16;;;;;;;11.55;7.53;;;;;;;18.92;32.05;99671.19;5051834;28;20040;-32
2023/03/06 11:24:47;;;;;;;19.42;9.68;;;;;;;19.22;30.64;99659.31;5052174;28;20463;-32
2023/03/06 11:27:33;;;;;;;12.88;7.70;;;;;;;19.44;31.23;99653.41;5051519;28;20037;-32